createdAt,value
2023-02-24T00:00:47.330Z,100638.97
2023-02-24T00:03:15.223Z,100634.31
2023-02-24T00:05:47.600Z,100643.16
2023-02-24T00:08:16.787Z,100622.94
2023-02-24T00:10:44.651Z,100638.34
2023-02-24T00:13:13.018Z,100631.63
2023-02-24T00:15:41.187Z,100636.94
2023-02-24T00:18:09.252Z,100628.19
2023-02-24T00:20:37.293Z,100624.97
2023-02-24T00:23:05.050Z,100620.03
2023-02-24T00:25:34.259Z,100620.88
2023-02-24T00:28:02.258Z,100615.84
2023-02-24T00:30:32.787Z,100610.56
2023-02-24T00:33:02.283Z,100626.25
2023-02-24T00:35:31.897Z,100602.22
2023-02-24T00:37:59.773Z,100601.00
2023-02-24T00:40:30.237Z,100602.56
2023-02-24T00:42:59.533Z,100600.78
2023-02-24T00:45:30.822Z,100603.28
2023-02-24T00:47:58.777Z,100593.47
2023-02-24T00:50:26.616Z,100590.84
2023-02-24T00:52:54.477Z,100581.84
2023-02-24T00:55:23.251Z,100571.09
2023-02-24T00:57:51.453Z,100570.97
2023-02-24T01:00:21.889Z,100548.56
2023-02-24T01:02:49.824Z,100560.22
2023-02-24T01:05:17.790Z,100560.31
2023-02-24T01:07:45.553Z,100558.38
2023-02-24T01:10:13.386Z,100551.94
2023-02-24T01:12:49.595Z,100521.06
2023-02-24T01:15:19.105Z,100528.47
2023-02-24T01:17:48.345Z,100547.16
2023-02-24T01:20:18.252Z,100545.13
2023-02-24T01:22:51.074Z,100522.28
2023-02-24T01:25:20.534Z,100539.75
2023-02-24T01:27:48.788Z,100546.91
2023-02-24T01:30:18.323Z,100539.00
2023-02-24T01:32:47.931Z,100541.06
2023-02-24T01:35:17.659Z,100537.09
2023-02-24T01:37:46.246Z,100537.34
2023-02-24T01:40:21.009Z,100532.91
2023-02-24T01:42:49.396Z,100527.91
2023-02-24T01:45:24.895Z,100528.63
2023-02-24T01:47:53.914Z,100525.16
2023-02-24T01:50:26.219Z,100520.84
2023-02-24T01:52:58.800Z,100502.19
2023-02-24T01:55:32.030Z,100521.09
2023-02-24T01:58:23.580Z,100514.38
2023-02-24T02:00:51.824Z,100509.34
2023-02-24T02:03:29.680Z,100517.97
2023-02-24T02:06:01.699Z,100505.03
2023-02-24T02:08:30.229Z,100510.41
2023-02-24T02:11:04.061Z,100501.94
2023-02-24T02:13:36.722Z,100507.19
2023-02-24T02:16:21.808Z,100497.13
2023-02-24T02:18:56.404Z,100502.16
2023-02-24T02:22:02.498Z,100489.59
2023-02-24T02:24:50.427Z,100502.63
2023-02-24T02:27:34.935Z,100496.41
2023-02-24T02:30:38.306Z,100493.06
2023-02-24T02:33:39.497Z,100480.38
2023-02-24T02:36:18.516Z,100469.59
2023-02-24T02:38:54.521Z,100478.94
2023-02-24T02:41:28.433Z,100482.53
2023-02-24T02:44:08.499Z,100486.09
2023-02-24T02:46:42.645Z,100477.25
2023-02-24T02:49:18.103Z,100475.34
2023-02-24T02:51:52.931Z,100469.38
2023-02-24T02:54:28.256Z,100464.34
2023-02-24T02:57:02.798Z,100468.66
2023-02-24T02:59:33.541Z,100462.66
2023-02-24T03:02:11.663Z,100457.41
2023-02-24T03:04:51.859Z,100464.13
2023-02-24T03:07:23.744Z,100451.19
2023-02-24T03:09:56.029Z,100445.22
2023-02-24T03:12:25.934Z,100414.97
2023-02-24T03:14:59.404Z,100441.16
2023-02-24T03:17:31.126Z,100440.16
2023-02-24T03:20:12.284Z,100428.81
2023-02-24T03:22:46.285Z,100439.94
2023-02-24T03:25:16.824Z,100412.56
2023-02-24T03:27:51.497Z,100426.47
2023-02-24T03:30:26.793Z,100427.19
2023-02-24T03:32:59.086Z,100428.03
2023-02-24T03:35:34.345Z,100426.22
2023-02-24T03:38:06.329Z,100413.19
2023-02-24T03:40:36.220Z,100427.53
2023-02-24T03:43:09.315Z,100417.97
2023-02-24T03:45:39.315Z,100408.41
2023-02-24T03:48:09.239Z,100413.66
2023-02-24T03:50:39.725Z,100413.66
2023-02-24T03:53:35.673Z,100408.63
2023-02-24T03:56:17.400Z,100415.78
2023-02-24T03:59:00.419Z,100394.81
2023-02-24T04:01:36.231Z,100410.06
2023-02-24T04:04:11.007Z,100412.69
2023-02-24T04:07:09.779Z,100387.75
2023-02-24T04:09:47.580Z,100412.28
2023-02-24T04:12:22.490Z,100410.59
2023-02-24T04:15:08.639Z,100380.22
2023-02-24T04:17:41.665Z,100408.69
2023-02-24T04:20:16.436Z,100409.75
2023-02-24T04:22:54.488Z,100404.75
2023-02-24T04:25:27.157Z,100407.50
2023-02-24T04:28:00.596Z,100400.44
2023-02-24T04:30:32.231Z,100393.25
2023-02-24T04:33:00.296Z,100381.44
2023-02-24T04:35:29.086Z,100405.22
2023-02-24T04:37:58.084Z,100406.03
2023-02-24T04:40:28.024Z,100399.72
2023-02-24T04:42:56.064Z,100402.47
2023-02-24T04:45:25.608Z,100390.16
2023-02-24T04:48:00.813Z,100399.94
2023-02-24T04:50:30.820Z,100385.03
2023-02-24T04:53:01.574Z,100381.91
2023-02-24T04:55:33.342Z,100370.31
2023-02-24T04:58:02.267Z,100379.38
2023-02-24T05:00:35.281Z,100377.47
2023-02-24T05:03:05.682Z,100365.41
2023-02-24T05:05:34.234Z,100371.75
2023-02-24T05:08:04.001Z,100361.81
2023-02-24T05:10:38.932Z,100371.03
2023-02-24T05:13:07.776Z,100361.47
2023-02-24T05:15:39.739Z,100371.03
2023-02-24T05:18:14.105Z,100359.91
2023-02-24T05:21:03.801Z,100355.50
2023-02-24T05:23:34.336Z,100362.66
2023-02-24T05:26:08.566Z,100366.00
2023-02-24T05:28:37.674Z,100361.69
2023-02-24T05:31:08.501Z,100358.34
2023-02-24T05:33:37.708Z,100352.97
2023-02-24T05:36:15.655Z,100332.19
2023-02-24T05:38:57.933Z,100347.84
2023-02-24T05:41:32.596Z,100347.34
2023-02-24T05:44:04.925Z,100345.66
2023-02-24T05:46:37.630Z,100348.28
2023-02-24T05:49:09.454Z,100345.44
2023-02-24T05:51:43.303Z,100345.44
2023-02-24T05:54:13.910Z,100344.84
2023-02-24T05:56:43.746Z,100336.38
2023-02-24T05:59:18.245Z,100328.94
2023-02-24T06:01:46.590Z,100332.50
2023-02-24T06:04:20.953Z,100320.34
2023-02-24T06:06:52.520Z,100317.94
2023-02-24T06:09:23.296Z,100307.19
2023-02-24T06:11:52.612Z,100314.25
2023-02-24T06:14:21.429Z,100307.56
2023-02-24T06:16:49.476Z,100316.03
2023-02-24T06:19:17.693Z,100315.31
2023-02-24T06:21:46.116Z,100311.25
2023-02-24T06:24:15.052Z,100318.91
2023-02-24T06:26:44.107Z,100303.50
2023-02-24T06:29:15.621Z,100312.81
2023-02-24T06:31:44.233Z,100303.59
2023-02-24T06:34:13.246Z,100306.22
2023-02-24T06:36:41.229Z,100297.13
2023-02-24T06:39:09.168Z,100294.59
2023-02-24T06:41:37.890Z,100279.66
2023-02-24T06:44:05.768Z,100297.97
2023-02-24T06:46:34.852Z,100291.41
2023-02-24T06:49:02.923Z,100301.16
2023-02-24T06:51:30.891Z,100294.97
2023-02-24T06:53:59.649Z,100278.94
2023-02-24T06:56:29.567Z,100303.75
2023-02-24T06:58:59.221Z,100299.69
2023-02-24T07:01:29.159Z,100301.84
2023-02-24T07:04:20.438Z,100297.81
2023-02-24T07:06:52.506Z,100303.91
2023-02-24T07:09:22.789Z,100303.19
2023-02-24T07:11:52.946Z,100298.03
2023-02-24T07:14:22.997Z,100290.91
2023-02-24T07:16:54.368Z,100271.66
2023-02-24T07:19:25.536Z,100284.66
2023-02-24T07:22:00.037Z,100301.78
2023-02-24T07:24:33.001Z,100299.06
2023-02-24T07:27:02.570Z,100293.41
2023-02-24T07:32:25.377Z,100278.72
2023-02-24T07:34:54.751Z,100289.00
2023-02-24T07:37:24.248Z,100282.19
2023-02-24T07:39:52.405Z,100286.88
2023-02-24T07:42:20.182Z,100244.09
2023-02-24T07:44:55.125Z,100271.81
2023-02-24T07:47:23.001Z,100269.19
2023-02-24T07:49:51.148Z,100264.66
2023-02-24T07:52:20.331Z,100245.56
2023-02-24T07:54:49.680Z,100253.44
2023-02-24T07:57:18.825Z,100229.44
2023-02-24T07:59:47.252Z,100228.63
2023-02-24T08:02:15.978Z,100247.84
2023-02-24T08:04:50.421Z,100233.59
2023-02-24T08:07:24.988Z,100220.63
2023-02-24T08:10:14.260Z,100240.69
2023-02-24T08:12:47.560Z,100235.44
2023-02-24T08:15:18.324Z,100215.50
2023-02-24T08:17:47.500Z,100221.47
2023-02-24T08:20:29.818Z,100225.50
2023-02-24T08:22:59.085Z,100224.78
2023-02-24T08:25:35.560Z,100205.94
2023-02-24T08:28:09.494Z,100201.88
2023-02-24T08:30:40.162Z,100209.75
2023-02-24T08:33:10.149Z,100204.28
2023-02-24T08:35:44.474Z,100204.50
2023-02-24T08:38:17.436Z,100201.44
2023-02-24T08:40:54.735Z,100201.44
2023-02-24T08:43:32.760Z,100188.31
2023-02-24T08:46:06.489Z,100193.56
2023-02-24T08:48:42.295Z,100176.38
2023-02-24T08:51:14.939Z,100182.59
2023-02-24T08:53:46.753Z,100173.28
2023-02-24T08:56:23.994Z,100152.75
2023-02-24T08:58:56.958Z,100167.81
2023-02-24T09:01:27.574Z,100164.59
2023-02-24T09:03:59.229Z,100119.81
2023-02-24T09:06:37.362Z,100167.09
2023-02-24T09:09:21.113Z,100156.34
2023-02-24T09:11:55.623Z,100170.91
2023-02-24T09:14:28.399Z,100156.38
2023-02-24T09:17:06.118Z,100149.06
2023-02-24T09:20:01.649Z,100146.31
2023-02-24T09:22:31.710Z,100153.25
2023-02-24T09:25:20.758Z,100137.00
2023-02-24T09:27:54.930Z,100140.34
2023-02-24T09:30:42.469Z,100137.97
2023-02-24T09:33:18.666Z,100145.56
2023-02-24T09:36:09.757Z,100147.28
2023-02-24T09:38:57.027Z,100143.94
2023-02-24T09:41:34.133Z,100142.50
2023-02-24T09:44:07.420Z,100142.38
2023-02-24T09:46:53.887Z,100132.94
2023-02-24T09:49:25.174Z,100130.09
2023-02-24T09:52:00.393Z,100129.84
2023-02-24T09:54:32.831Z,100131.16
2023-02-24T09:57:09.573Z,100128.41
2023-02-24T10:00:00.929Z,100127.94
2023-02-24T10:02:44.554Z,100121.38
2023-02-24T10:05:24.734Z,100119.81
2023-02-24T10:07:53.190Z,100112.56
2023-02-24T10:10:28.148Z,100110.88
2023-02-24T10:13:02.214Z,100075.22
2023-02-24T10:15:58.984Z,100099.09
2023-02-24T10:18:32.950Z,100100.66
2023-02-24T10:21:15.423Z,100094.31
2023-02-24T10:23:59.577Z,100095.00
2023-02-24T10:26:57.914Z,100090.84
2023-02-24T10:29:43.261Z,100102.41
2023-02-24T10:32:24.088Z,100085.00
2023-02-24T10:34:53.061Z,100058.75
2023-02-24T10:37:28.556Z,100085.72
2023-02-24T10:39:59.009Z,100080.22
2023-02-24T10:42:31.641Z,100079.28
2023-02-24T10:45:18.356Z,100066.63
2023-02-24T10:47:56.518Z,100060.91
2023-02-24T10:50:30.998Z,100043.25
2023-02-24T10:53:26.452Z,100069.63
2023-02-24T10:56:14.811Z,100062.09
2023-02-24T10:58:56.525Z,100047.78
2023-02-24T11:01:43.593Z,100050.19
2023-02-24T11:04:33.331Z,100046.84
2023-02-24T11:07:09.785Z,100015.22
2023-02-24T11:09:44.155Z,100043.50
2023-02-24T11:12:38.329Z,100034.41
2023-02-24T11:15:34.023Z,100032.50
2023-02-24T11:18:03.769Z,100026.19
2023-02-24T11:20:48.608Z,100019.63
2023-02-24T11:23:19.964Z,100009.38
2023-02-24T11:25:50.668Z,100014.16
2023-02-24T11:28:30.640Z,100007.72
2023-02-24T11:31:11.015Z,100006.41
2023-02-24T11:33:46.325Z,99968.22
2023-02-24T11:36:22.622Z,99987.44
2023-02-24T11:39:17.260Z,99983.25
2023-02-24T11:41:53.264Z,99983.25
2023-02-24T11:44:28.273Z,99910.44
2023-02-24T11:46:59.542Z,99964.91
2023-02-24T11:49:34.338Z,99960.66
2023-02-24T11:52:04.981Z,99957.53
2023-02-24T11:54:39.812Z,99947.38
2023-02-24T11:57:15.382Z,99933.09
2023-02-24T11:59:47.288Z,99945.97
2023-02-24T12:02:21.107Z,99935.38
2023-02-24T12:04:59.570Z,99927.63
2023-02-24T12:07:45.340Z,99913.31
2023-02-24T12:10:20.107Z,99926.88
2023-02-24T12:12:53.970Z,99916.66
2023-02-24T12:15:26.229Z,99908.66
2023-02-24T12:18:04.276Z,99903.03
2023-02-24T12:20:38.335Z,99896.16
2023-02-24T12:23:18.339Z,99873.66
2023-02-24T12:26:08.795Z,99897.34
2023-02-24T12:29:00.131Z,99869.13
2023-02-24T12:31:39.123Z,99883.53
2023-02-24T12:34:14.502Z,99842.91
2023-02-24T12:37:07.555Z,99881.75
2023-02-24T12:39:47.313Z,99885.31
2023-02-24T12:42:25.760Z,99882.56
2023-02-24T12:45:12.478Z,99875.31
2023-02-24T12:47:57.384Z,99866.03
2023-02-24T12:50:45.659Z,99870.44
2023-02-24T12:53:22.958Z,99851.38
2023-02-24T12:56:02.147Z,99856.34
2023-02-24T12:58:34.073Z,99857.91
2023-02-24T13:01:12.019Z,99844.47
2023-02-24T13:04:03.328Z,99839.94
2023-02-24T13:07:00.963Z,99818.50
2023-02-24T13:09:38.996Z,99848.97
2023-02-24T13:12:15.442Z,99828.47
2023-02-24T13:14:44.344Z,99830.88
2023-02-24T13:17:23.049Z,99805.75
2023-02-24T13:19:53.036Z,99794.44
2023-02-24T13:22:25.826Z,99817.19
2023-02-24T13:25:01.054Z,99804.69
2023-02-24T13:27:30.469Z,99817.66
2023-02-24T13:30:01.206Z,99804.91
2023-02-24T13:32:32.716Z,99814.31
2023-02-24T13:35:02.519Z,99800.16
2023-02-24T13:37:34.475Z,99808.25
2023-02-24T13:40:22.255Z,99799.94
2023-02-24T13:42:59.511Z,99792.16
2023-02-24T13:45:29.075Z,99784.44
2023-02-24T13:48:19.344Z,99772.78
2023-02-24T13:51:04.091Z,99778.97
2023-02-24T13:53:44.998Z,99775.63
2023-02-24T13:56:27.677Z,99763.00
2023-02-24T13:59:12.766Z,99760.38
2023-02-24T14:01:50.397Z,99756.09
2023-02-24T14:04:22.063Z,99745.13
2023-02-24T14:06:53.752Z,99750.72
2023-02-24T14:09:26.061Z,99753.47
2023-02-24T14:12:00.110Z,99735.88
2023-02-24T14:14:29.159Z,99746.59
2023-02-24T14:16:57.132Z,99711.38
2023-02-24T14:19:26.857Z,99752.66
2023-02-24T14:21:56.355Z,99741.59
2023-02-24T14:24:25.244Z,99729.19
2023-02-24T14:26:58.312Z,99742.88
2023-02-24T14:29:31.796Z,99741.00
2023-02-24T14:32:00.291Z,99719.22
2023-02-24T14:34:34.767Z,99730.41
2023-02-24T14:37:05.144Z,99731.13
2023-02-24T14:39:35.258Z,99723.41
2023-02-24T14:42:13.594Z,99717.31
2023-02-24T14:44:44.699Z,99694.34
2023-02-24T14:47:15.293Z,99685.88
2023-02-24T14:49:52.357Z,99689.81
2023-02-24T14:52:29.689Z,99709.44
2023-02-24T14:55:03.437Z,99688.88
2023-02-24T14:57:36.815Z,99693.25
2023-02-24T15:00:11.663Z,99694.47
2023-02-24T15:02:44.748Z,99700.28
2023-02-24T15:05:13.062Z,99688.13
2023-02-24T15:07:47.467Z,99652.00
2023-02-24T15:10:22.158Z,99685.53
2023-02-24T15:12:54.987Z,99695.41
2023-02-24T15:15:24.875Z,99679.19
2023-02-24T15:17:55.731Z,99680.28
2023-02-24T15:20:30.246Z,99680.53
2023-02-24T15:22:58.217Z,99666.72
2023-02-24T15:25:41.995Z,99686.13
2023-02-24T15:28:25.825Z,99670.44
2023-02-24T15:31:03.130Z,99665.53
2023-02-24T15:33:36.193Z,99648.03
2023-02-24T15:36:09.741Z,99663.75
2023-02-24T15:38:39.586Z,99630.34
2023-02-24T15:41:08.773Z,99638.09
2023-02-24T15:43:40.143Z,99648.06
2023-02-24T15:46:23.148Z,99633.63
2023-02-24T15:48:54.070Z,99634.47
2023-02-24T15:51:32.005Z,99630.66
2023-02-24T15:54:02.011Z,99627.47
2023-02-24T15:56:30.178Z,99624.13
2023-02-24T15:59:02.388Z,99624.84
2023-02-24T16:01:31.333Z,99633.97
2023-02-24T16:03:59.608Z,99615.53
2023-02-24T16:06:29.471Z,99614.22
2023-02-24T16:08:58.655Z,99599.88
2023-02-24T16:11:29.962Z,99605.19
2023-02-24T16:14:00.924Z,99610.38
2023-02-24T16:16:29.511Z,99610.94
2023-02-24T16:18:57.825Z,99577.78
2023-02-24T16:21:25.690Z,99606.28
2023-02-24T16:23:53.421Z,99603.22
2023-02-24T16:26:23.967Z,99601.44
2023-02-24T16:28:54.892Z,99584.41
2023-02-24T16:31:26.062Z,99602.56
2023-02-24T16:33:55.977Z,99597.81
2023-02-24T16:36:25.797Z,99602.47
2023-02-24T16:38:53.819Z,99591.97
2023-02-24T16:41:21.906Z,99581.31
2023-02-24T16:43:49.929Z,99600.31
2023-02-24T16:46:20.129Z,99600.72
2023-02-24T16:48:53.151Z,99603.34
2023-02-24T16:51:21.447Z,99612.19
2023-02-24T16:53:49.193Z,99611.50
2023-02-24T16:56:16.973Z,99610.56
2023-02-24T16:58:44.937Z,99598.28
2023-02-24T17:01:19.376Z,99591.72
2023-02-24T17:03:50.721Z,99602.69
2023-02-24T17:06:20.813Z,99594.81
2023-02-24T17:08:50.425Z,99604.94
2023-02-24T17:11:20.459Z,99592.63
2023-02-24T17:13:48.287Z,99596.53
2023-02-24T17:16:15.982Z,99595.25
2023-02-24T17:18:43.687Z,99612.88
2023-02-24T17:21:14.273Z,99606.63
2023-02-24T17:23:42.502Z,99613.66
2023-02-24T17:26:14.460Z,99601.97
2023-02-24T17:28:42.242Z,99605.03
2023-02-24T17:31:10.329Z,99614.44
2023-02-24T17:33:38.077Z,99605.59
2023-02-24T17:36:06.097Z,99613.34
2023-02-24T17:38:35.218Z,99609.66
2023-02-24T17:41:03.252Z,99585.66
2023-02-24T17:43:30.978Z,99612.84
2023-02-24T17:45:58.909Z,99621.91
2023-02-24T17:48:26.687Z,99608.09
2023-02-24T17:50:54.467Z,99602.94
2023-02-24T17:53:22.321Z,99612.03
2023-02-24T17:56:02.229Z,99615.22
2023-02-24T17:58:31.784Z,99607.63
2023-02-24T18:01:01.886Z,99612.78
2023-02-24T18:03:30.172Z,99612.53
2023-02-24T18:06:02.352Z,99623.41
2023-02-24T18:08:30.681Z,99622.69
2023-02-24T18:11:00.926Z,99615.88
2023-02-24T18:13:29.225Z,99626.38
2023-02-24T18:15:57.434Z,99624.13
2023-02-24T18:18:25.524Z,99625.25
2023-02-24T18:20:53.528Z,99623.03
2023-02-24T18:23:21.519Z,99611.25
2023-02-24T18:25:49.399Z,99613.13
2023-02-24T18:28:18.501Z,99622.19
2023-02-24T18:30:46.778Z,99618.22
2023-02-24T18:33:14.841Z,99631.78
2023-02-24T18:35:42.784Z,99632.69
2023-02-24T18:38:13.705Z,99618.16
2023-02-24T18:40:41.537Z,99624.38
2023-02-24T18:43:09.209Z,99619.38
2023-02-24T18:45:38.477Z,99621.75
2023-02-24T18:48:06.334Z,99620.59
2023-02-24T18:54:27.194Z,99619.06
2023-02-24T18:56:54.952Z,99632.63
2023-02-24T18:59:22.596Z,99627.44
2023-02-24T19:01:51.646Z,99638.19
2023-02-24T19:04:19.447Z,99643.22
2023-02-24T19:06:49.030Z,99636.38
2023-02-24T19:09:18.348Z,99643.34
2023-02-24T19:11:46.128Z,99658.25
2023-02-24T19:14:14.355Z,99650.38
2023-02-24T19:16:42.618Z,99641.03
2023-02-24T19:19:14.287Z,99648.84
2023-02-24T19:21:44.097Z,99640.56
2023-02-24T19:24:13.872Z,99642.72
2023-02-24T19:26:42.618Z,99654.63
2023-02-24T19:29:10.968Z,99648.41
2023-02-24T19:31:39.731Z,99646.47
2023-02-24T19:34:09.446Z,99638.91
2023-02-24T19:36:39.188Z,99645.88
2023-02-24T19:39:10.262Z,99644.78
2023-02-24T19:41:38.392Z,99668.19
2023-02-24T19:44:06.349Z,99668.06
2023-02-24T19:46:34.321Z,99660.09
2023-02-24T19:49:02.511Z,99660.81
2023-02-24T19:51:31.311Z,99666.53
2023-02-24T19:54:03.190Z,99676.75
2023-02-24T19:56:33.668Z,99677.72
2023-02-24T19:59:02.386Z,99682.56
2023-02-24T20:01:31.123Z,99682.25
2023-02-24T20:04:01.186Z,99679.88
2023-02-24T20:06:31.778Z,99679.00
2023-02-24T20:09:01.786Z,99679.09
2023-02-24T20:11:30.412Z,99687.25
2023-02-24T20:13:58.175Z,99696.06
2023-02-24T20:16:27.257Z,99690.09
2023-02-24T20:18:56.141Z,99688.19
2023-02-24T20:21:24.314Z,99692.28
2023-02-24T20:23:52.410Z,99700.59
2023-02-24T20:26:21.867Z,99697.28
2023-02-24T20:28:49.769Z,99704.63
2023-02-24T20:31:19.559Z,99703.91
2023-02-24T20:33:49.579Z,99692.25
2023-02-24T20:36:20.637Z,99694.03
2023-02-24T20:38:49.224Z,99712.72
2023-02-24T20:41:17.272Z,99707.06
2023-02-24T20:43:46.521Z,99705.34
2023-02-24T20:46:18.661Z,99731.06
2023-02-24T20:48:46.627Z,99728.91
2023-02-24T20:51:14.443Z,99720.28
2023-02-24T20:53:56.154Z,99728.38
2023-02-24T20:56:27.007Z,99716.63
2023-02-24T20:59:00.916Z,99723.25
2023-02-24T21:01:29.727Z,99718.19
2023-02-24T21:04:02.574Z,99723.09
2023-02-24T21:06:33.490Z,99718.66
2023-02-24T21:09:01.687Z,99710.28
2023-02-24T21:11:31.143Z,99715.22
2023-02-24T21:14:00.756Z,99726.00
2023-02-24T21:16:29.259Z,99730.13
2023-02-24T21:18:58.693Z,99726.34
2023-02-24T21:21:27.478Z,99725.75
2023-02-24T21:23:59.425Z,99729.13
2023-02-24T21:26:29.161Z,99731.91
2023-02-24T21:28:59.164Z,99718.94
2023-02-24T21:31:29.030Z,99730.81
2023-02-24T21:33:57.234Z,99733.66
2023-02-24T21:36:27.682Z,99736.28
2023-02-24T21:38:55.661Z,99732.81
2023-02-24T21:41:24.361Z,99729.84
2023-02-24T21:43:56.263Z,99743.09
2023-02-24T21:46:27.994Z,99747.63
2023-02-24T21:48:58.408Z,99740.13
2023-02-24T21:51:27.692Z,99723.59
2023-02-24T21:53:56.003Z,99734.66
2023-02-24T21:56:26.078Z,99739.69
2023-02-24T21:58:57.323Z,99742.75
2023-02-24T22:01:27.863Z,99740.63
2023-02-24T22:03:58.520Z,99746.34
2023-02-24T22:06:31.784Z,99748.84
2023-02-24T22:09:00.413Z,99743.22
2023-02-24T22:11:28.736Z,99739.91
2023-02-24T22:13:56.469Z,99751.00
2023-02-24T22:16:26.330Z,99747.06
2023-02-24T22:18:55.656Z,99760.63
2023-02-24T22:21:27.259Z,99755.97
2023-02-24T22:23:59.264Z,99751.13
2023-02-24T22:26:28.463Z,99756.59
2023-02-24T22:28:56.916Z,99769.06
2023-02-24T22:31:26.867Z,99759.69
2023-02-24T22:33:55.105Z,99754.94
2023-02-24T22:36:26.533Z,99748.72
2023-02-24T22:38:55.542Z,99740.03
2023-02-24T22:41:25.301Z,99761.94
2023-02-24T22:43:53.870Z,99742.78
2023-02-24T22:46:24.399Z,99768.72
2023-02-24T22:48:52.513Z,99771.97
2023-02-24T22:51:20.811Z,99768.97
2023-02-24T22:53:50.693Z,99766.09
2023-02-24T22:56:21.110Z,99766.59
2023-02-24T22:58:49.089Z,99771.59
2023-02-24T23:01:19.304Z,99778.84
2023-02-24T23:03:50.772Z,99781.13
2023-02-24T23:06:22.266Z,99780.28
2023-02-24T23:08:52.724Z,99780.28
2023-02-24T23:11:24.786Z,99781.72
2023-02-24T23:13:52.923Z,99778.59
2023-02-24T23:16:23.578Z,99777.78
2023-02-24T23:18:53.798Z,99773.72
2023-02-24T23:21:26.629Z,99780.41
2023-02-24T23:23:57.101Z,99793.81
2023-02-24T23:26:29.619Z,99800.50
2023-02-24T23:28:57.842Z,99807.53
2023-02-24T23:31:25.973Z,99806.47
2023-02-24T23:33:54.776Z,99808.25
2023-02-24T23:36:24.450Z,99800.00
2023-02-24T23:38:52.753Z,99814.44
2023-02-24T23:41:22.091Z,99819.69
2023-02-24T23:43:49.842Z,99810.16
2023-02-24T23:46:17.715Z,99814.78
2023-02-24T23:48:45.751Z,99814.16
2023-02-24T23:51:16.207Z,99825.84
2023-02-24T23:53:45.991Z,99821.69
2023-02-24T23:56:16.295Z,99824.41
2023-02-24T23:58:46.586Z,99814.44
